sensor_id;sensor_type;location;lat;lon;timestamp;P1;durP1;ratioP1;P2;durP2;ratioP2
1004;SDS011;491;53.480;10.174;2022-10-16T00:00:30;5.90;;;3.80;;
1004;SDS011;491;53.480;10.174;2022-10-16T00:02:56;4.67;;;3.40;;
1004;SDS011;491;53.480;10.174;2022-10-16T00:05:21;6.40;;;3.97;;
1004;SDS011;491;53.480;10.174;2022-10-16T00:07:47;8.07;;;3.40;;
1004;SDS011;491;53.480;10.174;2022-10-16T00:10:12;4.97;;;3.47;;
1004;SDS011;491;53.480;10.174;2022-10-16T00:12:38;4.40;;;3.00;;
1004;SDS011;491;53.480;10.174;2022-10-16T00:15:04;6.83;;;5.60;;
1004;SDS011;491;53.480;10.174;2022-10-16T00:17:30;5.43;;;3.63;;
1004;SDS011;491;53.480;10.174;2022-10-16T00:19:56;5.07;;;3.93;;
1004;SDS011;491;53.480;10.174;2022-10-16T00:22:21;5.00;;;3.67;;
1004;SDS011;491;53.480;10.174;2022-10-16T00:24:47;4.43;;;2.60;;
1004;SDS011;491;53.480;10.174;2022-10-16T00:27:12;8.60;;;3.37;;
1004;SDS011;491;53.480;10.174;2022-10-16T00:29:38;5.70;;;3.87;;
1004;SDS011;491;53.480;10.174;2022-10-16T00:32:03;5.70;;;3.80;;
1004;SDS011;491;53.480;10.174;2022-10-16T00:34:29;4.77;;;3.23;;
1004;SDS011;491;53.480;10.174;2022-10-16T00:36:55;5.10;;;2.97;;
1004;SDS011;491;53.480;10.174;2022-10-16T00:39:20;5.93;;;2.43;;
1004;SDS011;491;53.480;10.174;2022-10-16T00:41:47;4.70;;;3.37;;
1004;SDS011;491;53.480;10.174;2022-10-16T00:47:42;5.40;;;3.60;;
1004;SDS011;491;53.480;10.174;2022-10-16T00:50:12;5.00;;;3.20;;
1004;SDS011;491;53.480;10.174;2022-10-16T00:52:59;5.30;;;2.67;;
1004;SDS011;491;53.480;10.174;2022-10-16T00:55:27;4.23;;;3.00;;
1004;SDS011;491;53.480;10.174;2022-10-16T00:57:55;6.27;;;3.07;;
1004;SDS011;491;53.480;10.174;2022-10-16T01:00:25;6.10;;;2.43;;
1004;SDS011;491;53.480;10.174;2022-10-16T01:05:54;4.23;;;2.53;;
1004;SDS011;491;53.480;10.174;2022-10-16T01:08:58;5.33;;;3.10;;
1004;SDS011;491;53.480;10.174;2022-10-16T01:14:22;3.17;;;2.33;;
1004;SDS011;491;53.480;10.174;2022-10-16T01:17:06;3.97;;;2.70;;
1004;SDS011;491;53.480;10.174;2022-10-16T01:20:02;4.30;;;2.37;;
1004;SDS011;491;53.480;10.174;2022-10-16T01:22:54;3.50;;;1.97;;
1004;SDS011;491;53.480;10.174;2022-10-16T01:28:30;4.03;;;1.90;;
1004;SDS011;491;53.480;10.174;2022-10-16T01:31:01;3.80;;;1.80;;
1004;SDS011;491;53.480;10.174;2022-10-16T01:33:42;3.30;;;1.40;;
1004;SDS011;491;53.480;10.174;2022-10-16T01:36:12;3.90;;;1.80;;
1004;SDS011;491;53.480;10.174;2022-10-16T01:38:41;2.93;;;1.80;;
1004;SDS011;491;53.480;10.174;2022-10-16T01:41:11;3.30;;;1.40;;
1004;SDS011;491;53.480;10.174;2022-10-16T01:43:42;4.90;;;1.17;;
1004;SDS011;491;53.480;10.174;2022-10-16T01:46:16;3.87;;;1.17;;
1004;SDS011;491;53.480;10.174;2022-10-16T01:48:43;2.20;;;1.07;;
1004;SDS011;491;53.480;10.174;2022-10-16T01:51:10;3.40;;;1.30;;
1004;SDS011;491;53.480;10.174;2022-10-16T01:53:39;5.83;;;0.73;;
1004;SDS011;491;53.480;10.174;2022-10-16T01:56:07;3.93;;;1.67;;
1004;SDS011;491;53.480;10.174;2022-10-16T01:58:36;1.60;;;0.47;;
1004;SDS011;491;53.480;10.174;2022-10-16T02:01:07;2.00;;;0.40;;
1004;SDS011;491;53.480;10.174;2022-10-16T02:03:35;3.17;;;0.80;;
1004;SDS011;491;53.480;10.174;2022-10-16T02:06:04;0.90;;;0.63;;
1004;SDS011;491;53.480;10.174;2022-10-16T02:08:30;3.07;;;0.63;;
1004;SDS011;491;53.480;10.174;2022-10-16T02:10:56;2.30;;;1.43;;
1004;SDS011;491;53.480;10.174;2022-10-16T02:13:23;1.40;;;0.40;;
1004;SDS011;491;53.480;10.174;2022-10-16T02:15:57;2.47;;;0.50;;
1004;SDS011;491;53.480;10.174;2022-10-16T02:18:23;2.70;;;0.37;;
1004;SDS011;491;53.480;10.174;2022-10-16T02:20:58;1.80;;;0.80;;
1004;SDS011;491;53.480;10.174;2022-10-16T02:23:35;1.57;;;0.33;;
1004;SDS011;491;53.480;10.174;2022-10-16T02:26:12;1.53;;;0.57;;
1004;SDS011;491;53.480;10.174;2022-10-16T02:28:42;2.43;;;0.57;;
1004;SDS011;491;53.480;10.174;2022-10-16T02:31:12;2.23;;;0.40;;
1004;SDS011;491;53.480;10.174;2022-10-16T02:33:43;2.20;;;0.50;;
1004;SDS011;491;53.480;10.174;2022-10-16T02:36:10;2.03;;;0.40;;
1004;SDS011;491;53.480;10.174;2022-10-16T02:38:36;2.03;;;0.70;;
1004;SDS011;491;53.480;10.174;2022-10-16T02:41:03;1.80;;;0.57;;
1004;SDS011;491;53.480;10.174;2022-10-16T02:43:29;1.90;;;0.80;;
1004;SDS011;491;53.480;10.174;2022-10-16T02:45:55;3.60;;;0.40;;
1004;SDS011;491;53.480;10.174;2022-10-16T02:48:20;1.13;;;0.50;;
1004;SDS011;491;53.480;10.174;2022-10-16T02:50:46;1.23;;;0.30;;
1004;SDS011;491;53.480;10.174;2022-10-16T02:53:11;3.80;;;0.50;;
1004;SDS011;491;53.480;10.174;2022-10-16T02:55:37;2.10;;;0.43;;
1004;SDS011;491;53.480;10.174;2022-10-16T02:58:02;3.47;;;0.47;;
1004;SDS011;491;53.480;10.174;2022-10-16T03:00:28;2.37;;;0.30;;
1004;SDS011;491;53.480;10.174;2022-10-16T03:02:53;2.40;;;0.30;;
1004;SDS011;491;53.480;10.174;2022-10-16T03:05:19;2.93;;;0.53;;
1004;SDS011;491;53.480;10.174;2022-10-16T03:07:44;2.00;;;0.67;;
1004;SDS011;491;53.480;10.174;2022-10-16T03:10:10;2.87;;;0.43;;
1004;SDS011;491;53.480;10.174;2022-10-16T03:12:35;4.33;;;0.50;;
1004;SDS011;491;53.480;10.174;2022-10-16T03:15:01;1.13;;;0.20;;
1004;SDS011;491;53.480;10.174;2022-10-16T03:17:27;2.60;;;0.50;;
1004;SDS011;491;53.480;10.174;2022-10-16T03:19:52;3.23;;;0.80;;
1004;SDS011;491;53.480;10.174;2022-10-16T03:22:18;1.20;;;0.60;;
1004;SDS011;491;53.480;10.174;2022-10-16T03:24:43;1.23;;;0.23;;
1004;SDS011;491;53.480;10.174;2022-10-16T03:27:09;3.33;;;0.70;;
1004;SDS011;491;53.480;10.174;2022-10-16T03:29:34;3.20;;;0.53;;
1004;SDS011;491;53.480;10.174;2022-10-16T03:32:00;1.53;;;0.33;;
1004;SDS011;491;53.480;10.174;2022-10-16T03:34:26;0.87;;;0.30;;
1004;SDS011;491;53.480;10.174;2022-10-16T03:36:51;1.77;;;0.57;;
1004;SDS011;491;53.480;10.174;2022-10-16T03:39:17;3.63;;;0.43;;
1004;SDS011;491;53.480;10.174;2022-10-16T03:41:43;3.83;;;0.80;;
1004;SDS011;491;53.480;10.174;2022-10-16T03:44:08;3.33;;;0.70;;
1004;SDS011;491;53.480;10.174;2022-10-16T03:46:34;0.63;;;0.30;;
1004;SDS011;491;53.480;10.174;2022-10-16T03:48:59;1.90;;;0.20;;
1004;SDS011;491;53.480;10.174;2022-10-16T03:51:25;1.03;;;0.63;;
1004;SDS011;491;53.480;10.174;2022-10-16T03:53:50;1.07;;;0.43;;
1004;SDS011;491;53.480;10.174;2022-10-16T03:56:16;0.80;;;0.20;;
1004;SDS011;491;53.480;10.174;2022-10-16T03:58:41;1.43;;;0.37;;
1004;SDS011;491;53.480;10.174;2022-10-16T04:01:07;1.97;;;0.40;;
1004;SDS011;491;53.480;10.174;2022-10-16T04:03:32;0.83;;;0.20;;
1004;SDS011;491;53.480;10.174;2022-10-16T04:05:58;0.80;;;0.33;;
1004;SDS011;491;53.480;10.174;2022-10-16T04:08:23;1.00;;;0.30;;
1004;SDS011;491;53.480;10.174;2022-10-16T04:10:49;3.10;;;0.47;;
1004;SDS011;491;53.480;10.174;2022-10-16T04:13:14;1.80;;;0.30;;
1004;SDS011;491;53.480;10.174;2022-10-16T04:15:46;1.63;;;0.30;;
1004;SDS011;491;53.480;10.174;2022-10-16T04:18:11;0.83;;;0.20;;
1004;SDS011;491;53.480;10.174;2022-10-16T04:20:37;2.50;;;0.60;;
1004;SDS011;491;53.480;10.174;2022-10-16T04:23:03;1.03;;;0.50;;
1004;SDS011;491;53.480;10.174;2022-10-16T04:25:28;1.43;;;0.43;;
1004;SDS011;491;53.480;10.174;2022-10-16T04:27:54;1.17;;;0.30;;
1004;SDS011;491;53.480;10.174;2022-10-16T04:30:21;0.70;;;0.20;;
1004;SDS011;491;53.480;10.174;2022-10-16T04:32:50;1.63;;;0.50;;
1004;SDS011;491;53.480;10.174;2022-10-16T04:35:17;3.37;;;0.50;;
1004;SDS011;491;53.480;10.174;2022-10-16T04:37:43;2.67;;;0.60;;
1004;SDS011;491;53.480;10.174;2022-10-16T04:40:09;1.00;;;0.20;;
1004;SDS011;491;53.480;10.174;2022-10-16T04:42:35;1.97;;;0.37;;
1004;SDS011;491;53.480;10.174;2022-10-16T04:45:00;5.70;;;0.57;;
1004;SDS011;491;53.480;10.174;2022-10-16T04:47:26;2.50;;;0.40;;
1004;SDS011;491;53.480;10.174;2022-10-16T04:49:51;2.50;;;0.43;;
1004;SDS011;491;53.480;10.174;2022-10-16T04:52:17;1.13;;;0.40;;
1004;SDS011;491;53.480;10.174;2022-10-16T04:54:43;0.63;;;0.20;;
1004;SDS011;491;53.480;10.174;2022-10-16T04:57:10;2.10;;;0.53;;
1004;SDS011;491;53.480;10.174;2022-10-16T04:59:35;1.47;;;0.40;;
1004;SDS011;491;53.480;10.174;2022-10-16T05:02:01;2.47;;;0.50;;
1004;SDS011;491;53.480;10.174;2022-10-16T05:04:27;1.70;;;0.37;;
1004;SDS011;491;53.480;10.174;2022-10-16T05:06:52;1.40;;;0.33;;
1004;SDS011;491;53.480;10.174;2022-10-16T05:09:18;2.33;;;0.27;;
1004;SDS011;491;53.480;10.174;2022-10-16T05:11:43;1.67;;;0.33;;
1004;SDS011;491;53.480;10.174;2022-10-16T05:14:09;1.27;;;0.47;;
1004;SDS011;491;53.480;10.174;2022-10-16T05:16:34;1.13;;;0.67;;
1004;SDS011;491;53.480;10.174;2022-10-16T05:18:59;1.10;;;0.20;;
1004;SDS011;491;53.480;10.174;2022-10-16T05:21:25;1.40;;;0.30;;
1004;SDS011;491;53.480;10.174;2022-10-16T05:23:51;1.80;;;0.40;;
1004;SDS011;491;53.480;10.174;2022-10-16T05:26:19;1.93;;;0.30;;
1004;SDS011;491;53.480;10.174;2022-10-16T05:28:45;2.83;;;0.47;;
1004;SDS011;491;53.480;10.174;2022-10-16T05:31:10;3.53;;;0.57;;
1004;SDS011;491;53.480;10.174;2022-10-16T05:33:36;2.30;;;0.40;;
1004;SDS011;491;53.480;10.174;2022-10-16T05:36:04;5.60;;;0.53;;
1004;SDS011;491;53.480;10.174;2022-10-16T05:38:32;3.17;;;0.27;;
1004;SDS011;491;53.480;10.174;2022-10-16T05:40:58;2.70;;;0.47;;
1004;SDS011;491;53.480;10.174;2022-10-16T05:43:24;0.50;;;0.20;;
1004;SDS011;491;53.480;10.174;2022-10-16T05:45:53;2.10;;;0.83;;
1004;SDS011;491;53.480;10.174;2022-10-16T05:48:19;2.47;;;0.50;;
1004;SDS011;491;53.480;10.174;2022-10-16T05:50:45;2.57;;;0.50;;
1004;SDS011;491;53.480;10.174;2022-10-16T05:53:10;1.13;;;0.30;;
1004;SDS011;491;53.480;10.174;2022-10-16T05:55:36;2.63;;;0.40;;
1004;SDS011;491;53.480;10.174;2022-10-16T05:58:01;4.03;;;2.67;;
1004;SDS011;491;53.480;10.174;2022-10-16T06:00:26;1.50;;;0.40;;
1004;SDS011;491;53.480;10.174;2022-10-16T06:02:52;2.40;;;0.77;;
1004;SDS011;491;53.480;10.174;2022-10-16T06:05:18;2.70;;;0.53;;
1004;SDS011;491;53.480;10.174;2022-10-16T06:07:44;1.50;;;0.73;;
1004;SDS011;491;53.480;10.174;2022-10-16T06:10:09;2.43;;;0.30;;
1004;SDS011;491;53.480;10.174;2022-10-16T06:12:35;1.83;;;0.57;;
1004;SDS011;491;53.480;10.174;2022-10-16T06:15:00;2.20;;;0.40;;
1004;SDS011;491;53.480;10.174;2022-10-16T06:17:25;4.43;;;0.93;;
1004;SDS011;491;53.480;10.174;2022-10-16T06:19:51;0.90;;;0.30;;
1004;SDS011;491;53.480;10.174;2022-10-16T06:22:16;2.37;;;0.70;;
1004;SDS011;491;53.480;10.174;2022-10-16T06:24:42;1.40;;;0.30;;
1004;SDS011;491;53.480;10.174;2022-10-16T06:27:07;3.00;;;0.80;;
1004;SDS011;491;53.480;10.174;2022-10-16T06:29:33;4.97;;;0.67;;
1004;SDS011;491;53.480;10.174;2022-10-16T06:31:58;1.53;;;0.40;;
1004;SDS011;491;53.480;10.174;2022-10-16T06:34:24;1.30;;;0.50;;
1004;SDS011;491;53.480;10.174;2022-10-16T06:36:49;3.27;;;0.97;;
1004;SDS011;491;53.480;10.174;2022-10-16T06:39:15;3.93;;;0.57;;
1004;SDS011;491;53.480;10.174;2022-10-16T06:41:41;4.13;;;0.63;;
1004;SDS011;491;53.480;10.174;2022-10-16T06:44:06;2.10;;;0.50;;
1004;SDS011;491;53.480;10.174;2022-10-16T06:46:33;2.53;;;0.80;;
1004;SDS011;491;53.480;10.174;2022-10-16T06:48:59;3.73;;;0.87;;
1004;SDS011;491;53.480;10.174;2022-10-16T06:51:24;2.43;;;0.40;;
1004;SDS011;491;53.480;10.174;2022-10-16T06:53:51;3.37;;;0.97;;
1004;SDS011;491;53.480;10.174;2022-10-16T06:56:22;2.40;;;1.00;;
1004;SDS011;491;53.480;10.174;2022-10-16T06:58:49;2.80;;;0.80;;
1004;SDS011;491;53.480;10.174;2022-10-16T07:01:16;4.13;;;1.20;;
1004;SDS011;491;53.480;10.174;2022-10-16T07:03:49;5.23;;;0.90;;
1004;SDS011;491;53.480;10.174;2022-10-16T07:06:16;5.93;;;0.87;;
1004;SDS011;491;53.480;10.174;2022-10-16T07:08:44;2.93;;;0.77;;
1004;SDS011;491;53.480;10.174;2022-10-16T07:11:14;2.30;;;0.97;;
1004;SDS011;491;53.480;10.174;2022-10-16T07:13:42;4.43;;;1.43;;
1004;SDS011;491;53.480;10.174;2022-10-16T07:16:15;19.13;;;1.90;;
1004;SDS011;491;53.480;10.174;2022-10-16T07:18:45;3.00;;;1.27;;
1004;SDS011;491;53.480;10.174;2022-10-16T07:21:14;2.83;;;1.50;;
1004;SDS011;491;53.480;10.174;2022-10-16T07:23:42;4.03;;;1.30;;
1004;SDS011;491;53.480;10.174;2022-10-16T07:26:08;1.67;;;0.70;;
1004;SDS011;491;53.480;10.174;2022-10-16T07:28:34;3.53;;;0.60;;
1004;SDS011;491;53.480;10.174;2022-10-16T07:31:01;2.53;;;0.53;;
1004;SDS011;491;53.480;10.174;2022-10-16T07:33:32;2.00;;;0.90;;
1004;SDS011;491;53.480;10.174;2022-10-16T07:35:59;1.13;;;0.43;;
1004;SDS011;491;53.480;10.174;2022-10-16T07:38:25;2.20;;;0.53;;
1004;SDS011;491;53.480;10.174;2022-10-16T07:40:57;4.30;;;0.80;;
1004;SDS011;491;53.480;10.174;2022-10-16T07:43:27;3.13;;;0.80;;
1004;SDS011;491;53.480;10.174;2022-10-16T07:45:56;2.60;;;0.43;;
1004;SDS011;491;53.480;10.174;2022-10-16T07:48:24;1.03;;;0.57;;
1004;SDS011;491;53.480;10.174;2022-10-16T07:50:51;0.80;;;0.40;;
1004;SDS011;491;53.480;10.174;2022-10-16T07:53:17;1.33;;;0.50;;
1004;SDS011;491;53.480;10.174;2022-10-16T07:55:43;1.40;;;0.60;;
1004;SDS011;491;53.480;10.174;2022-10-16T07:58:08;1.77;;;0.50;;
1004;SDS011;491;53.480;10.174;2022-10-16T08:00:35;1.60;;;0.37;;
1004;SDS011;491;53.480;10.174;2022-10-16T08:03:01;0.77;;;0.20;;
1004;SDS011;491;53.480;10.174;2022-10-16T08:05:29;1.77;;;0.20;;
1004;SDS011;491;53.480;10.174;2022-10-16T08:07:57;0.70;;;0.20;;
1004;SDS011;491;53.480;10.174;2022-10-16T08:10:23;1.00;;;0.80;;
1004;SDS011;491;53.480;10.174;2022-10-16T08:12:50;3.33;;;0.40;;
1004;SDS011;491;53.480;10.174;2022-10-16T08:15:17;1.50;;;0.30;;
1004;SDS011;491;53.480;10.174;2022-10-16T08:17:43;3.50;;;0.53;;
1004;SDS011;491;53.480;10.174;2022-10-16T08:20:09;1.47;;;0.20;;
1004;SDS011;491;53.480;10.174;2022-10-16T08:22:35;3.03;;;0.33;;
1004;SDS011;491;53.480;10.174;2022-10-16T08:25:01;2.80;;;0.43;;
1004;SDS011;491;53.480;10.174;2022-10-16T08:27:31;0.70;;;0.20;;
1004;SDS011;491;53.480;10.174;2022-10-16T08:29:58;1.33;;;0.43;;
1004;SDS011;491;53.480;10.174;2022-10-16T08:32:23;2.50;;;0.40;;
1004;SDS011;491;53.480;10.174;2022-10-16T08:34:49;1.63;;;0.20;;
1004;SDS011;491;53.480;10.174;2022-10-16T08:37:14;1.43;;;0.40;;
1004;SDS011;491;53.480;10.174;2022-10-16T08:39:40;0.97;;;0.30;;
1004;SDS011;491;53.480;10.174;2022-10-16T08:47:45;3.37;;;0.57;;
1004;SDS011;491;53.480;10.174;2022-10-16T08:50:48;0.97;;;0.20;;
1004;SDS011;491;53.480;10.174;2022-10-16T08:53:20;0.93;;;0.23;;
1004;SDS011;491;53.480;10.174;2022-10-16T08:56:07;3.83;;;0.30;;
1004;SDS011;491;53.480;10.174;2022-10-16T08:58:32;1.67;;;0.50;;
1004;SDS011;491;53.480;10.174;2022-10-16T09:00:58;1.40;;;0.20;;
1004;SDS011;491;53.480;10.174;2022-10-16T09:03:36;1.70;;;0.20;;
1004;SDS011;491;53.480;10.174;2022-10-16T09:06:35;0.93;;;0.40;;
1004;SDS011;491;53.480;10.174;2022-10-16T09:09:24;1.13;;;0.57;;
1004;SDS011;491;53.480;10.174;2022-10-16T09:12:04;1.23;;;0.23;;
1004;SDS011;491;53.480;10.174;2022-10-16T09:17:45;2.13;;;0.20;;
1004;SDS011;491;53.480;10.174;2022-10-16T09:22:51;0.60;;;0.20;;
1004;SDS011;491;53.480;10.174;2022-10-16T09:25:42;1.47;;;0.60;;
1004;SDS011;491;53.480;10.174;2022-10-16T09:28:10;0.70;;;0.30;;
1004;SDS011;491;53.480;10.174;2022-10-16T09:30:36;0.50;;;0.20;;
1004;SDS011;491;53.480;10.174;2022-10-16T09:33:04;1.33;;;0.33;;
1004;SDS011;491;53.480;10.174;2022-10-16T09:35:36;0.90;;;0.20;;
1004;SDS011;491;53.480;10.174;2022-10-16T09:38:24;1.43;;;0.47;;
1004;SDS011;491;53.480;10.174;2022-10-16T09:40:58;3.53;;;0.40;;
1004;SDS011;491;53.480;10.174;2022-10-16T09:43:29;1.03;;;0.30;;
1004;SDS011;491;53.480;10.174;2022-10-16T09:46:06;0.90;;;0.27;;
1004;SDS011;491;53.480;10.174;2022-10-16T09:48:38;0.57;;;0.20;;
1004;SDS011;491;53.480;10.174;2022-10-16T09:51:16;1.30;;;0.20;;
1004;SDS011;491;53.480;10.174;2022-10-16T09:54:01;2.10;;;0.40;;
1004;SDS011;491;53.480;10.174;2022-10-16T09:56:38;0.57;;;0.27;;
1004;SDS011;491;53.480;10.174;2022-10-16T10:01:39;1.17;;;0.50;;
1004;SDS011;491;53.480;10.174;2022-10-16T10:04:10;1.90;;;0.20;;
1004;SDS011;491;53.480;10.174;2022-10-16T10:06:37;1.10;;;0.30;;
1004;SDS011;491;53.480;10.174;2022-10-16T10:09:24;1.27;;;0.40;;
1004;SDS011;491;53.480;10.174;2022-10-16T10:11:54;1.10;;;0.80;;
1004;SDS011;491;53.480;10.174;2022-10-16T10:14:22;1.10;;;0.20;;
1004;SDS011;491;53.480;10.174;2022-10-16T10:16:51;2.60;;;0.30;;
1004;SDS011;491;53.480;10.174;2022-10-16T10:19:26;1.50;;;0.20;;
1004;SDS011;491;53.480;10.174;2022-10-16T10:21:52;2.93;;;0.30;;
1004;SDS011;491;53.480;10.174;2022-10-16T10:24:19;0.40;;;0.20;;
1004;SDS011;491;53.480;10.174;2022-10-16T10:26:49;1.53;;;0.43;;
1004;SDS011;491;53.480;10.174;2022-10-16T10:29:49;1.00;;;0.20;;
1004;SDS011;491;53.480;10.174;2022-10-16T10:32:21;1.07;;;0.40;;
1004;SDS011;491;53.480;10.174;2022-10-16T10:37:51;0.70;;;0.20;;
1004;SDS011;491;53.480;10.174;2022-10-16T10:43:07;4.13;;;0.63;;
1004;SDS011;491;53.480;10.174;2022-10-16T10:45:58;2.73;;;0.27;;
1004;SDS011;491;53.480;10.174;2022-10-16T10:48:38;1.37;;;0.30;;
1004;SDS011;491;53.480;10.174;2022-10-16T10:51:10;1.10;;;0.20;;
1004;SDS011;491;53.480;10.174;2022-10-16T10:56:24;1.80;;;0.30;;
1004;SDS011;491;53.480;10.174;2022-10-16T11:07:37;0.73;;;0.20;;
1004;SDS011;491;53.480;10.174;2022-10-16T11:10:13;1.23;;;0.20;;
1004;SDS011;491;53.480;10.174;2022-10-16T11:12:42;1.83;;;0.30;;
1004;SDS011;491;53.480;10.174;2022-10-16T11:15:18;0.97;;;0.23;;
1004;SDS011;491;53.480;10.174;2022-10-16T11:17:54;1.70;;;0.50;;
1004;SDS011;491;53.480;10.174;2022-10-16T11:20:37;0.73;;;0.20;;
1004;SDS011;491;53.480;10.174;2022-10-16T11:23:10;1.87;;;0.57;;
1004;SDS011;491;53.480;10.174;2022-10-16T11:25:42;3.10;;;0.50;;
1004;SDS011;491;53.480;10.174;2022-10-16T11:31:18;1.83;;;0.30;;
1004;SDS011;491;53.480;10.174;2022-10-16T11:36:44;1.17;;;0.20;;
1004;SDS011;491;53.480;10.174;2022-10-16T11:41:50;0.90;;;0.20;;
1004;SDS011;491;53.480;10.174;2022-10-16T11:46:53;2.30;;;0.30;;
1004;SDS011;491;53.480;10.174;2022-10-16T11:49:42;1.90;;;0.30;;
1004;SDS011;491;53.480;10.174;2022-10-16T11:52:19;1.57;;;0.20;;
1004;SDS011;491;53.480;10.174;2022-10-16T11:57:46;1.60;;;0.30;;
1004;SDS011;491;53.480;10.174;2022-10-16T12:00:23;0.60;;;0.10;;
1004;SDS011;491;53.480;10.174;2022-10-16T12:08:12;0.57;;;0.20;;
1004;SDS011;491;53.480;10.174;2022-10-16T12:10:40;2.97;;;0.27;;
1004;SDS011;491;53.480;10.174;2022-10-16T12:18:48;0.87;;;0.20;;
1004;SDS011;491;53.480;10.174;2022-10-16T12:21:17;0.77;;;0.23;;
1004;SDS011;491;53.480;10.174;2022-10-16T12:23:55;1.17;;;0.20;;
1004;SDS011;491;53.480;10.174;2022-10-16T12:26:23;0.87;;;0.20;;
1004;SDS011;491;53.480;10.174;2022-10-16T12:28:51;1.73;;;0.30;;
1004;SDS011;491;53.480;10.174;2022-10-16T12:31:16;3.47;;;0.40;;
1004;SDS011;491;53.480;10.174;2022-10-16T12:34:43;1.10;;;0.20;;
1004;SDS011;491;53.480;10.174;2022-10-16T12:36:49;6.30;;;0.37;;
1004;SDS011;491;53.480;10.174;2022-10-16T12:39:22;1.90;;;0.20;;
1004;SDS011;491;53.480;10.174;2022-10-16T12:41:59;3.83;;;0.27;;
1004;SDS011;491;53.480;10.174;2022-10-16T12:44:27;1.70;;;0.40;;
1004;SDS011;491;53.480;10.174;2022-10-16T12:46:57;1.87;;;0.27;;
1004;SDS011;491;53.480;10.174;2022-10-16T12:49:36;2.47;;;0.30;;
1004;SDS011;491;53.480;10.174;2022-10-16T12:52:03;2.20;;;0.20;;
1004;SDS011;491;53.480;10.174;2022-10-16T12:54:31;2.73;;;0.37;;
1004;SDS011;491;53.480;10.174;2022-10-16T13:03:09;1.00;;;0.23;;
1004;SDS011;491;53.480;10.174;2022-10-16T13:08:43;2.30;;;0.20;;
1004;SDS011;491;53.480;10.174;2022-10-16T13:11:19;0.40;;;0.20;;
1004;SDS011;491;53.480;10.174;2022-10-16T13:14:07;0.70;;;0.20;;
1004;SDS011;491;53.480;10.174;2022-10-16T13:19:21;2.80;;;0.20;;
1004;SDS011;491;53.480;10.174;2022-10-16T13:27:51;1.17;;;0.20;;
1004;SDS011;491;53.480;10.174;2022-10-16T13:30:22;1.37;;;0.30;;
1004;SDS011;491;53.480;10.174;2022-10-16T13:32:53;1.60;;;0.33;;
1004;SDS011;491;53.480;10.174;2022-10-16T13:35:30;2.33;;;0.30;;
1004;SDS011;491;53.480;10.174;2022-10-16T13:38:04;1.00;;;0.83;;
1004;SDS011;491;53.480;10.174;2022-10-16T13:40:35;1.60;;;0.40;;
1004;SDS011;491;53.480;10.174;2022-10-16T13:43:01;1.10;;;0.30;;
1004;SDS011;491;53.480;10.174;2022-10-16T13:45:27;1.13;;;0.20;;
1004;SDS011;491;53.480;10.174;2022-10-16T13:48:02;1.20;;;0.20;;
1004;SDS011;491;53.480;10.174;2022-10-16T13:50:29;2.10;;;0.20;;
1004;SDS011;491;53.480;10.174;2022-10-16T13:53:04;2.43;;;0.23;;
1004;SDS011;491;53.480;10.174;2022-10-16T13:55:31;1.83;;;0.93;;
1004;SDS011;491;53.480;10.174;2022-10-16T13:58:12;1.60;;;0.30;;
1004;SDS011;491;53.480;10.174;2022-10-16T14:00:39;1.27;;;0.37;;
1004;SDS011;491;53.480;10.174;2022-10-16T14:03:17;0.70;;;0.10;;
1004;SDS011;491;53.480;10.174;2022-10-16T14:05:45;3.13;;;0.70;;
1004;SDS011;491;53.480;10.174;2022-10-16T14:08:14;2.20;;;0.20;;
1004;SDS011;491;53.480;10.174;2022-10-16T14:10:40;0.60;;;0.20;;
1004;SDS011;491;53.480;10.174;2022-10-16T14:13:06;0.70;;;0.20;;
1004;SDS011;491;53.480;10.174;2022-10-16T14:15:33;2.43;;;0.20;;
1004;SDS011;491;53.480;10.174;2022-10-16T14:18:00;2.23;;;0.20;;
1004;SDS011;491;53.480;10.174;2022-10-16T14:20:30;1.20;;;0.23;;
1004;SDS011;491;53.480;10.174;2022-10-16T14:23:02;1.00;;;0.20;;
1004;SDS011;491;53.480;10.174;2022-10-16T14:25:30;1.00;;;0.20;;
1004;SDS011;491;53.480;10.174;2022-10-16T14:28:01;2.93;;;0.43;;
1004;SDS011;491;53.480;10.174;2022-10-16T14:30:28;2.47;;;0.20;;
1004;SDS011;491;53.480;10.174;2022-10-16T14:32:59;2.13;;;0.20;;
1004;SDS011;491;53.480;10.174;2022-10-16T14:35:30;1.90;;;0.23;;
1004;SDS011;491;53.480;10.174;2022-10-16T14:38:05;0.70;;;0.20;;
1004;SDS011;491;53.480;10.174;2022-10-16T14:40:35;1.50;;;0.27;;
1004;SDS011;491;53.480;10.174;2022-10-16T14:43:02;3.20;;;0.20;;
1004;SDS011;491;53.480;10.174;2022-10-16T14:45:32;1.90;;;0.30;;
1004;SDS011;491;53.480;10.174;2022-10-16T14:48:01;0.87;;;0.20;;
1004;SDS011;491;53.480;10.174;2022-10-16T14:50:31;4.00;;;0.50;;
1004;SDS011;491;53.480;10.174;2022-10-16T14:52:56;1.27;;;0.20;;
1004;SDS011;491;53.480;10.174;2022-10-16T14:55:23;1.87;;;0.20;;
1004;SDS011;491;53.480;10.174;2022-10-16T14:57:50;0.60;;;0.10;;
1004;SDS011;491;53.480;10.174;2022-10-16T15:00:20;0.77;;;0.20;;
1004;SDS011;491;53.480;10.174;2022-10-16T15:02:48;2.30;;;0.20;;
1004;SDS011;491;53.480;10.174;2022-10-16T15:05:24;2.63;;;0.33;;
1004;SDS011;491;53.480;10.174;2022-10-16T15:07:51;2.70;;;0.20;;
1004;SDS011;491;53.480;10.174;2022-10-16T15:10:18;1.03;;;0.20;;
1004;SDS011;491;53.480;10.174;2022-10-16T15:12:46;2.70;;;0.23;;
1004;SDS011;491;53.480;10.174;2022-10-16T15:15:33;2.27;;;0.30;;
1004;SDS011;491;53.480;10.174;2022-10-16T15:18:00;4.63;;;0.50;;
1004;SDS011;491;53.480;10.174;2022-10-16T15:20:27;0.90;;;0.20;;
1004;SDS011;491;53.480;10.174;2022-10-16T15:23:00;3.60;;;0.53;;
1004;SDS011;491;53.480;10.174;2022-10-16T15:27:52;2.60;;;0.23;;
1004;SDS011;491;53.480;10.174;2022-10-16T15:30:18;1.13;;;0.20;;
1004;SDS011;491;53.480;10.174;2022-10-16T15:32:43;2.20;;;0.20;;
1004;SDS011;491;53.480;10.174;2022-10-16T15:35:09;3.50;;;0.23;;
1004;SDS011;491;53.480;10.174;2022-10-16T15:37:34;2.63;;;0.43;;
1004;SDS011;491;53.480;10.174;2022-10-16T15:40:00;2.10;;;0.20;;
1004;SDS011;491;53.480;10.174;2022-10-16T15:42:25;2.87;;;0.27;;
1004;SDS011;491;53.480;10.174;2022-10-16T15:44:51;0.77;;;0.20;;
1004;SDS011;491;53.480;10.174;2022-10-16T15:47:16;1.20;;;0.20;;
1004;SDS011;491;53.480;10.174;2022-10-16T15:49:42;1.03;;;0.20;;
1004;SDS011;491;53.480;10.174;2022-10-16T15:52:07;1.50;;;0.23;;
1004;SDS011;491;53.480;10.174;2022-10-16T15:54:33;4.10;;;0.20;;
1004;SDS011;491;53.480;10.174;2022-10-16T15:56:58;0.60;;;0.30;;
1004;SDS011;491;53.480;10.174;2022-10-16T15:59:24;1.90;;;0.20;;
1004;SDS011;491;53.480;10.174;2022-10-16T16:01:49;1.30;;;0.40;;
1004;SDS011;491;53.480;10.174;2022-10-16T16:04:15;3.90;;;0.20;;
1004;SDS011;491;53.480;10.174;2022-10-16T16:06:41;2.10;;;0.30;;
1004;SDS011;491;53.480;10.174;2022-10-16T16:09:09;1.03;;;0.17;;
1004;SDS011;491;53.480;10.174;2022-10-16T16:11:36;0.80;;;0.20;;
1004;SDS011;491;53.480;10.174;2022-10-16T16:14:03;3.60;;;0.20;;
1004;SDS011;491;53.480;10.174;2022-10-16T16:16:32;1.70;;;0.20;;
1004;SDS011;491;53.480;10.174;2022-10-16T16:19:03;4.07;;;0.40;;
1004;SDS011;491;53.480;10.174;2022-10-16T16:21:30;3.70;;;0.30;;
1004;SDS011;491;53.480;10.174;2022-10-16T16:23:57;1.57;;;0.23;;
1004;SDS011;491;53.480;10.174;2022-10-16T16:26:24;3.30;;;0.43;;
1004;SDS011;491;53.480;10.174;2022-10-16T16:28:52;0.80;;;0.20;;
1004;SDS011;491;53.480;10.174;2022-10-16T16:31:23;0.53;;;0.17;;
1004;SDS011;491;53.480;10.174;2022-10-16T16:33:49;4.13;;;0.20;;
1004;SDS011;491;53.480;10.174;2022-10-16T16:36:16;2.30;;;0.27;;
1004;SDS011;491;53.480;10.174;2022-10-16T16:38:42;2.50;;;0.30;;
1004;SDS011;491;53.480;10.174;2022-10-16T16:41:42;1.10;;;0.30;;
1004;SDS011;491;53.480;10.174;2022-10-16T16:44:04;1.30;;;0.30;;
1004;SDS011;491;53.480;10.174;2022-10-16T16:46:31;2.03;;;0.27;;
1004;SDS011;491;53.480;10.174;2022-10-16T16:48:58;2.40;;;0.93;;
1004;SDS011;491;53.480;10.174;2022-10-16T16:51:24;1.77;;;0.40;;
1004;SDS011;491;53.480;10.174;2022-10-16T16:53:51;2.07;;;0.30;;
1004;SDS011;491;53.480;10.174;2022-10-16T16:56:18;2.53;;;0.20;;